• Join FlightAware (Why Join?)
  • Login
  • US Flag 
06:11AM EDT


 

Airport Tracker/Info


-or-


 

Live Flight TrackerFlight Track Log ✈ RPA4911 ✈ 30-Aug-2013 ✈ KALB - KEWR

Flight Track Log - Related Links

Times and Time Zones

All times are in EDT time to prevent confusion due to time zone crossing. See the RPA4911 flight status page for this flight to view local times or setup timezone preferences in your user account.

Time Position Orientation Groundspeed Altitude Reporting Facility
EDT Latitude Longitude Course Direction KTS MPH feet Rate Location/Type
06:12AM 42.7714 -73.8092 200° South 179 206 1,400  Level Boston Center
06:13AM 42.7958 -73.8661 300° West 237 273 3,800 1,860 Climbing Boston Center
06:14AM 42.4463 -73.8575 196° South  Level Estimated
06:14AM 42.7369 -73.8931 199° South 286 329 5,500  Level Boston Center
06:15AM 42.3453 -73.8759 197° South  Level Estimated
06:15AM 42.6617 -73.9139 192° South 286 329 7,500  Level Boston Center
06:16AM 42.2707 -73.9697 223° Southwest  Level FlightAware Approximate
06:16AM 42.5739 -73.9372 191° South 286 329 9,900  Level Boston Center
06:17AM 42.1693 -73.9828 200° South  Level Estimated
06:17AM 42.4967 -73.9578 191° South 286 329 11,800  Level Boston Center
06:18AM 42.4067 -73.9867 193° South 317 365 12,000 60 Climbing Boston Center
06:19AM 42.3144 -74.0094 190° South 339 390 12,000  Level Boston Center
06:20AM 42.2183 -74.0408 194° South 354 407 12,000  Level Boston Center
06:21AM 42.1300 -74.0806 198° South 354 407 12,100  Climbing Boston Center
06:22AM 42.0400 -74.1200 198° South 343 395 12,100  Level Boston Center
06:23AM 41.9622 -74.1517 197° South 336 387 12,100 -240 Level Boston Center
06:24AM 41.8700 -74.1936 199° South 330 380 11,700 -900 Descending Boston Center
06:25AM 41.7944 -74.2278 199° South 324 373 10,300 -1,500 Descending Boston Center
06:26AM 41.7083 -74.2617 196° South 305 351 8,700 -1,500 Descending Boston Center
06:27AM 41.6411 -74.2931 199° South 299 344 7,300 -840 Descending Boston Center
06:28AM 41.5614 -74.3267 198° South 284 327 7,100 -120 Descending Boston Center
06:29AM 41.4983 -74.3553 199° South 279 321 7,100 -120 Level Boston Center
06:31AM 41.3333 -74.3667 183° South 274 315 6,800 -420 Descending New York TRACON
06:32AM 41.2833 -74.3167 143° Southeast 270 311 6,000 -900 Descending New York TRACON
06:33AM 41.2167 -74.2833 159° South 264 304 5,200 -660 Descending New York TRACON
06:34AM 41.1500 -74.2500 159° South 256 295 4,800 -900 Descending New York TRACON
06:35AM 41.0833 -74.2000 151° Southeast 258 297 3,400 -960 Descending New York TRACON
06:36AM 41.0333 -74.1667 153° Southeast 251 289 3,000 -240 Descending New York TRACON
06:37AM 40.9667 -74.1333 159° South 258 297 3,000  Level New York TRACON
06:38AM 40.9000 -74.1000 159° South 257 296 3,000 -300 Level New York TRACON
06:39AM 40.8333 -74.0833 169° South 212 244 2,500 -480 Descending New York TRACON
06:40AM 40.8000 -74.1000 201° Southwest 183 211 2,100 -720 Descending New York TRACON
06:41AM 40.7500 -74.1167 194° South 152 175 1,300 -780 Descending New York TRACON
06:42AM 40.7333 -74.1500 237° Southwest 120 138 700 -720 Descending New York TRACON